Аэропорт: Омск-Центральный. Омск

ICAO: UNOO

METAR:
2021-01-24 19:30:00
UNOO 241930Z 14002MPS 8000 NSC M34/M39 Q1042 R25/810550 NOSIG RMK QFE773
METAR:
2021-01-24 16:55:00
TAF UNOO 241655Z 2418/2518 16003MPS 3100 IC FU SCT010 TEMPO 2418/2501 0800 IC FG SCT004 FM250100 14005G11MPS 4000 -SHSN BKN007 BKN020CB TEMPO 2501/2509 1100 SHSN VV003